Nagornyj, Russia
Current Conditions -  °F | °C
As of 6:30 PM on Sunday 26 Oct 2014 (Local Time) from UHBB Reporting Station
Broken Clouds Broken Clouds  
Wind Chill: 10°   Ceiling: 20000
Heat Index: 25°   Visibility: 6mi
Dew Point: 16°   Wind: 20mph
Humidity: 69%   Direction: 350°N
Pressure: 30.06"   Gusts: 31mph
Location:  55.97°N, 124.88°E
Report Text: UHBB 260930Z 35009G14MPS 9999 FEW033 BKN200 M04/M09 Q1018 NOSIGRMK QFE746/0994 36190060
Loading
Personal Weather Stations






























Interactive Weather Map
Tropical Storm Tracking
New forecast layout! Learn more

10-Day Weather Forecast

Advertisements
Track Severe Weather on mobile